createdAt,value
2018-12-29T00:00:08.243Z,27.37
2018-12-29T00:02:36.907Z,29.23
2018-12-29T00:05:05.759Z,27.20
2018-12-29T00:07:34.600Z,30.90
2018-12-29T00:10:03.405Z,30.57
2018-12-29T00:12:32.409Z,32.63
2018-12-29T00:15:01.625Z,30.77
2018-12-29T00:17:30.853Z,30.60
2018-12-29T00:19:59.211Z,33.03
2018-12-29T00:22:27.983Z,29.50
2018-12-29T00:24:56.863Z,33.43
2018-12-29T00:27:25.630Z,28.67
2018-12-29T00:29:54.447Z,31.43
2018-12-29T00:32:23.663Z,30.87
2018-12-29T00:34:52.329Z,34.20
2018-12-29T00:37:21.154Z,28.20
2018-12-29T00:39:49.989Z,29.40
2018-12-29T00:42:18.827Z,25.37
2018-12-29T00:44:47.459Z,30.57
2018-12-29T00:47:16.100Z,23.90
2018-12-29T00:49:44.725Z,25.67
2018-12-29T00:52:13.363Z,28.10
2018-12-29T00:54:41.997Z,24.60
2018-12-29T00:57:11.396Z,25.77
2018-12-29T00:59:40.336Z,29.33
2018-12-29T01:02:09.090Z,29.03
2018-12-29T01:04:38.104Z,28.67
2018-12-29T01:07:07.132Z,25.40
2018-12-29T01:09:35.878Z,22.70
2018-12-29T01:12:04.624Z,25.20
2018-12-29T01:14:33.460Z,27.80
2018-12-29T01:17:02.859Z,27.33
2018-12-29T01:19:31.517Z,28.47
2018-12-29T01:22:02.198Z,24.47
2018-12-29T01:24:30.941Z,26.23
2018-12-29T01:26:59.860Z,30.00
2018-12-29T01:29:29.317Z,31.77
2018-12-29T01:31:58.600Z,33.63
2018-12-29T01:34:27.269Z,31.53
2018-12-29T01:36:56.374Z,27.00
2018-12-29T01:39:25.403Z,33.23
2018-12-29T01:41:54.163Z,27.70
2018-12-29T01:44:22.993Z,27.80
2018-12-29T01:46:51.818Z,30.87
2018-12-29T01:49:20.458Z,28.57
2018-12-29T01:51:49.472Z,27.37
2018-12-29T01:54:18.115Z,25.50
2018-12-29T01:56:47.047Z,25.50
2018-12-29T01:59:16.356Z,27.53
2018-12-29T02:01:45.079Z,29.33
2018-12-29T02:04:14.126Z,27.13
2018-12-29T02:06:42.890Z,28.30
2018-12-29T02:09:11.530Z,27.13
2018-12-29T02:11:40.358Z,32.27
2018-12-29T02:14:09.191Z,27.17
2018-12-29T02:16:38.196Z,29.63
2018-12-29T02:19:07.383Z,31.97
2018-12-29T02:21:36.450Z,32.17
2018-12-29T02:24:05.111Z,31.17
2018-12-29T02:26:33.741Z,28.80
2018-12-29T02:29:02.410Z,29.47
2018-12-29T02:31:31.223Z,28.33
2018-12-29T02:34:00.118Z,30.67
2018-12-29T02:36:28.881Z,33.57
2018-12-29T02:38:57.752Z,31.40
2018-12-29T02:41:26.913Z,33.23
2018-12-29T02:43:55.863Z,36.67
2018-12-29T02:46:24.599Z,32.43
2018-12-29T02:48:53.242Z,32.97
2018-12-29T02:51:21.883Z,37.57
2018-12-29T02:53:50.995Z,33.80
2018-12-29T02:56:19.752Z,27.73
2018-12-29T02:58:48.752Z,33.37
2018-12-29T03:01:17.420Z,30.20
2018-12-29T03:03:46.246Z,28.97
2018-12-29T03:06:15.255Z,31.40
2018-12-29T03:08:43.913Z,32.50
2018-12-29T03:11:12.747Z,29.27
2018-12-29T03:13:41.582Z,28.67
2018-12-29T03:16:10.511Z,32.17
2018-12-29T03:18:39.610Z,28.03
2018-12-29T03:21:08.267Z,32.07
2018-12-29T03:23:37.112Z,32.73
2018-12-29T03:26:06.502Z,33.30
2018-12-29T03:28:35.156Z,32.63
2018-12-29T03:31:04.180Z,34.10
2018-12-29T03:33:32.819Z,26.73
2018-12-29T03:36:02.036Z,35.00
2018-12-29T03:38:30.780Z,30.77
2018-12-29T03:40:59.544Z,28.40
2018-12-29T03:43:28.367Z,34.20
2018-12-29T03:45:57.572Z,32.27
2018-12-29T03:48:26.785Z,29.77
2018-12-29T03:50:55.641Z,35.90
2018-12-29T03:53:24.559Z,33.70
2018-12-29T03:55:53.317Z,31.30
2018-12-29T03:58:22.420Z,34.63
2018-12-29T04:00:51.738Z,32.63
2018-12-29T04:03:20.607Z,31.77
2018-12-29T04:05:49.614Z,33.40
2018-12-29T04:08:18.632Z,34.43
2018-12-29T04:10:48.059Z,29.27
2018-12-29T04:13:17.093Z,25.87
2018-12-29T04:15:46.121Z,30.20
2018-12-29T04:18:14.767Z,28.23
2018-12-29T04:20:43.978Z,28.03
2018-12-29T04:23:12.916Z,25.30
2018-12-29T04:25:42.044Z,29.87
2018-12-29T04:28:10.736Z,26.13
2018-12-29T04:30:40.096Z,27.07
2018-12-29T04:33:08.756Z,28.17
2018-12-29T04:35:37.958Z,27.40
2018-12-29T04:38:06.614Z,24.03
2018-12-29T04:40:35.463Z,24.63
2018-12-29T04:43:04.146Z,30.33
2018-12-29T04:45:33.320Z,29.40
2018-12-29T04:48:01.958Z,25.63
2018-12-29T04:50:31.157Z,30.83
2018-12-29T04:53:00.393Z,30.53
2018-12-29T04:55:29.420Z,28.67
2018-12-29T04:57:58.256Z,28.30
2018-12-29T05:00:27.291Z,29.70
2018-12-29T05:02:56.316Z,23.83
2018-12-29T05:05:24.973Z,27.40
2018-12-29T05:07:54.174Z,28.57
2018-12-29T05:10:23.002Z,28.87
2018-12-29T05:12:51.661Z,35.60
2018-12-29T05:15:20.861Z,28.37
2018-12-29T05:17:49.802Z,28.40
2018-12-29T05:20:18.931Z,25.17
2018-12-29T05:22:47.862Z,28.53
2018-12-29T05:25:16.891Z,24.70
2018-12-29T05:27:45.650Z,26.93
2018-12-29T05:30:15.041Z,26.60
2018-12-29T05:32:43.911Z,27.27
2018-12-29T05:35:13.118Z,26.73
2018-12-29T05:37:41.764Z,23.60
2018-12-29T05:40:11.359Z,25.20
2018-12-29T05:42:40.299Z,27.63
2018-12-29T05:45:09.424Z,22.47
2018-12-29T05:47:38.453Z,25.17
2018-12-29T05:50:07.493Z,23.13
2018-12-29T05:52:36.703Z,24.77
2018-12-29T05:55:05.423Z,27.33
2018-12-29T05:57:34.570Z,23.00
2018-12-29T06:00:03.604Z,21.73
2018-12-29T06:02:32.634Z,24.50
2018-12-29T06:05:01.562Z,26.17
2018-12-29T06:07:30.882Z,21.27
2018-12-29T06:09:59.922Z,22.13
2018-12-29T06:12:28.587Z,25.37
2018-12-29T06:14:57.588Z,19.83
2018-12-29T06:17:26.251Z,20.43
2018-12-29T06:19:55.184Z,20.07
2018-12-29T06:22:24.284Z,21.33
2018-12-29T06:24:53.499Z,22.10
2018-12-29T06:27:22.633Z,19.33
2018-12-29T06:29:51.398Z,17.27
2018-12-29T06:32:20.220Z,19.40
2018-12-29T06:34:49.426Z,16.37
2018-12-29T06:37:18.646Z,17.33
2018-12-29T06:39:46.992Z,18.87
2018-12-29T06:42:15.758Z,17.43
2018-12-29T06:44:44.764Z,19.13
2018-12-29T06:47:13.983Z,18.27
2018-12-29T06:49:43.209Z,15.20
2018-12-29T06:52:12.252Z,14.40
2018-12-29T06:54:41.179Z,17.27
2018-12-29T06:57:09.948Z,13.40
2018-12-29T06:59:38.750Z,17.43
2018-12-29T07:02:07.775Z,15.77
2018-12-29T07:04:36.993Z,19.60
2018-12-29T07:07:05.650Z,18.90
2018-12-29T07:09:34.282Z,18.17
2018-12-29T07:12:03.495Z,21.07
2018-12-29T07:14:32.138Z,16.13
2018-12-29T07:17:00.980Z,16.27
2018-12-29T07:19:30.004Z,16.53
2018-12-29T07:21:58.932Z,15.23
2018-12-29T07:24:27.757Z,18.40
2018-12-29T07:26:57.082Z,16.80
2018-12-29T07:29:25.742Z,15.63
2018-12-29T07:31:54.755Z,17.07
2018-12-29T07:34:23.438Z,20.57
2018-12-29T07:36:52.248Z,14.57
2018-12-29T07:39:21.061Z,18.43
2018-12-29T07:41:49.712Z,18.80
2018-12-29T07:44:18.374Z,16.33
2018-12-29T07:46:49.716Z,19.73
2018-12-29T07:49:17.585Z,19.03
2018-12-29T07:51:46.218Z,18.47
2018-12-29T07:54:15.239Z,21.13
2018-12-29T07:57:01.955Z,19.77
2018-12-29T07:59:30.803Z,18.27
2018-12-29T08:01:59.454Z,19.47
2018-12-29T08:04:28.667Z,18.30
2018-12-29T08:06:57.593Z,21.00
2018-12-29T08:09:26.335Z,18.97
2018-12-29T08:11:55.156Z,22.63
2018-12-29T08:14:24.376Z,17.57
2018-12-29T08:16:56.817Z,17.43
2018-12-29T08:19:23.449Z,19.47
2018-12-29T08:21:52.073Z,17.70
2018-12-29T08:24:20.712Z,17.40
2018-12-29T08:26:49.638Z,19.37
2018-12-29T08:29:19.146Z,17.73
2018-12-29T08:31:48.084Z,18.03
2018-12-29T08:34:16.842Z,19.90
2018-12-29T08:36:45.985Z,17.73
2018-12-29T08:39:15.074Z,18.60
2018-12-29T08:41:44.008Z,19.47
2018-12-29T08:44:13.035Z,23.20
2018-12-29T08:46:41.794Z,21.17
2018-12-29T08:49:10.801Z,19.83
2018-12-29T08:51:39.447Z,20.83
2018-12-29T08:54:08.482Z,25.10
2018-12-29T08:56:37.500Z,20.00
2018-12-29T08:59:06.527Z,20.13
2018-12-29T09:01:35.236Z,21.13
2018-12-29T09:04:04.579Z,19.70
2018-12-29T09:06:33.248Z,20.43
2018-12-29T09:09:01.871Z,20.43
2018-12-29T09:11:30.936Z,19.37
2018-12-29T09:13:59.543Z,21.43
2018-12-29T09:16:28.182Z,22.50
2018-12-29T09:18:57.381Z,20.60
2018-12-29T09:21:26.060Z,19.17
2018-12-29T09:23:54.700Z,24.47
2018-12-29T09:26:23.507Z,15.67
2018-12-29T09:28:52.147Z,24.73
2018-12-29T09:31:21.351Z,21.10
2018-12-29T09:33:50.072Z,19.10
2018-12-29T09:36:18.861Z,20.80
2018-12-29T09:38:47.954Z,20.70
2018-12-29T09:41:16.986Z,20.10
2018-12-29T09:43:46.306Z,21.77
2018-12-29T09:46:15.341Z,24.47
2018-12-29T09:48:43.986Z,18.83
2018-12-29T09:51:12.909Z,20.00
2018-12-29T09:53:42.040Z,22.77
2018-12-29T09:56:11.268Z,23.77
2018-12-29T09:58:40.293Z,23.33
2018-12-29T10:01:09.148Z,18.53
2018-12-29T10:03:38.346Z,20.80
2018-12-29T10:06:07.241Z,22.37
2018-12-29T10:08:36.411Z,19.20
2018-12-29T10:11:05.539Z,22.03
2018-12-29T10:13:34.294Z,22.13
2018-12-29T10:16:03.113Z,19.63
2018-12-29T10:18:31.935Z,24.80
2018-12-29T10:21:01.070Z,20.77
2018-12-29T10:23:30.200Z,20.53
2018-12-29T10:25:59.232Z,25.40
2018-12-29T10:28:27.887Z,22.93
2018-12-29T10:30:56.799Z,19.27
2018-12-29T10:33:26.113Z,21.03
2018-12-29T10:35:55.151Z,19.80
2018-12-29T10:38:24.178Z,20.97
2018-12-29T10:40:52.839Z,20.17
2018-12-29T10:43:21.466Z,22.07
2018-12-29T10:45:50.107Z,20.67
2018-12-29T10:48:18.767Z,24.60
2018-12-29T10:50:47.587Z,22.07
2018-12-29T10:53:16.439Z,19.90
2018-12-29T10:55:45.257Z,21.67
2018-12-29T10:58:13.887Z,21.30
2018-12-29T11:00:43.087Z,23.57
2018-12-29T11:03:12.120Z,20.77
2018-12-29T11:05:40.957Z,22.50
2018-12-29T11:08:10.010Z,19.97
2018-12-29T11:10:38.703Z,24.20
2018-12-29T11:13:07.476Z,20.57
2018-12-29T11:15:36.283Z,18.77
2018-12-29T11:18:05.500Z,22.97
2018-12-29T11:20:34.172Z,23.03
2018-12-29T11:23:03.183Z,22.03
2018-12-29T11:25:31.827Z,21.27
2018-12-29T11:28:00.487Z,22.30
2018-12-29T11:30:29.775Z,19.27
2018-12-29T11:32:58.903Z,21.47
2018-12-29T11:35:29.019Z,20.63
2018-12-29T11:37:58.528Z,23.00
2018-12-29T11:40:27.568Z,23.90
2018-12-29T11:42:56.599Z,24.03
2018-12-29T11:45:25.267Z,24.57
2018-12-29T11:47:54.165Z,22.63
2018-12-29T11:50:23.479Z,20.73
2018-12-29T11:52:52.519Z,18.93
2018-12-29T11:55:21.738Z,22.37
2018-12-29T11:57:50.400Z,20.33
2018-12-29T12:00:19.315Z,20.97
2018-12-29T12:02:48.076Z,22.40
2018-12-29T12:05:17.075Z,20.33
2018-12-29T12:07:45.726Z,20.53
2018-12-29T12:10:14.748Z,23.37
2018-12-29T12:12:43.962Z,21.40
2018-12-29T12:15:13.207Z,24.50
2018-12-29T12:17:42.325Z,22.77
2018-12-29T12:20:11.107Z,20.93
2018-12-29T12:22:39.910Z,23.13
2018-12-29T12:25:08.926Z,19.03
2018-12-29T12:27:38.146Z,25.43
2018-12-29T12:30:07.572Z,18.80
2018-12-29T12:32:36.604Z,19.53
2018-12-29T12:35:05.837Z,21.60
2018-12-29T12:37:34.864Z,23.57
2018-12-29T12:40:04.088Z,25.63
2018-12-29T12:42:32.751Z,24.13
2018-12-29T12:45:01.385Z,26.40
2018-12-29T12:47:30.067Z,22.10
2018-12-29T12:49:58.847Z,21.70
2018-12-29T12:52:28.439Z,20.70
2018-12-29T12:54:57.665Z,22.40
2018-12-29T12:57:27.482Z,22.83
2018-12-29T12:59:57.110Z,22.37
2018-12-29T13:02:26.354Z,25.90
2018-12-29T13:04:55.373Z,21.73
2018-12-29T13:07:24.304Z,24.67
2018-12-29T13:09:53.421Z,21.60
2018-12-29T13:12:22.456Z,19.13
2018-12-29T13:14:52.074Z,23.03
2018-12-29T13:17:20.733Z,25.33
2018-12-29T13:19:50.084Z,21.07
2018-12-29T13:22:19.162Z,20.60
2018-12-29T13:24:47.823Z,20.17
2018-12-29T13:27:17.215Z,20.93
2018-12-29T13:29:45.571Z,23.33
2018-12-29T13:32:14.882Z,20.63
2018-12-29T13:34:43.923Z,23.83
2018-12-29T13:37:12.567Z,21.20
2018-12-29T13:39:41.588Z,22.07
2018-12-29T13:42:10.253Z,24.43
2018-12-29T13:44:38.867Z,20.80
2018-12-29T13:47:07.505Z,17.43
2018-12-29T13:49:36.164Z,20.97
2018-12-29T13:52:05.033Z,20.10
2018-12-29T13:54:33.823Z,23.77
2018-12-29T13:57:02.461Z,19.77
2018-12-29T13:59:31.103Z,18.93
2018-12-29T14:02:00.289Z,20.50
2018-12-29T14:04:29.328Z,21.27
2018-12-29T14:06:57.981Z,21.17
2018-12-29T14:09:26.622Z,20.27
2018-12-29T14:11:55.632Z,19.60
2018-12-29T14:14:25.441Z,19.63
2018-12-29T14:16:54.479Z,20.77
2018-12-29T14:19:23.406Z,17.00
2018-12-29T14:21:52.535Z,20.87
2018-12-29T14:24:21.228Z,23.97
2018-12-29T14:26:50.500Z,22.03
2018-12-29T14:29:19.718Z,21.27
2018-12-29T14:31:48.475Z,21.57
2018-12-29T14:34:17.593Z,19.80
2018-12-29T14:36:46.720Z,18.43
2018-12-29T14:39:15.642Z,20.83
2018-12-29T14:41:44.779Z,20.60
2018-12-29T14:44:13.806Z,22.77
2018-12-29T14:46:42.833Z,17.47
2018-12-29T14:49:11.493Z,21.00
2018-12-29T14:51:40.695Z,20.07
2018-12-29T14:54:09.342Z,21.77
2018-12-29T14:56:38.246Z,18.37
2018-12-29T14:59:07.039Z,19.90
2018-12-29T15:01:36.060Z,19.50
2018-12-29T15:04:04.684Z,20.77
2018-12-29T15:06:33.315Z,17.43
2018-12-29T15:09:01.997Z,18.73
2018-12-29T15:11:31.355Z,18.10
2018-12-29T15:14:00.778Z,19.00
2018-12-29T15:16:29.454Z,17.33
2018-12-29T15:18:58.086Z,18.73
2018-12-29T15:21:27.099Z,19.33
2018-12-29T15:23:55.725Z,19.77
2018-12-29T15:26:24.374Z,22.07
2018-12-29T15:28:53.076Z,19.03
2018-12-29T15:31:22.324Z,18.60
2018-12-29T15:33:51.350Z,22.50
2018-12-29T15:36:20.113Z,22.37
2018-12-29T15:38:49.311Z,22.13
2018-12-29T15:41:17.959Z,19.20
2018-12-29T15:43:47.562Z,20.50
2018-12-29T15:46:16.501Z,23.23
2018-12-29T15:48:51.071Z,19.33
2018-12-29T15:51:16.224Z,24.07
2018-12-29T15:53:44.883Z,20.67
2018-12-29T15:56:14.135Z,19.93
2018-12-29T15:58:42.967Z,22.30
2018-12-29T16:01:12.736Z,23.23
2018-12-29T16:03:41.399Z,20.90
2018-12-29T16:06:10.032Z,22.93
2018-12-29T16:08:41.006Z,21.27
2018-12-29T16:11:10.430Z,19.57
2018-12-29T16:13:40.055Z,19.67
2018-12-29T16:16:09.275Z,22.47
2018-12-29T16:18:38.502Z,20.77
2018-12-29T16:21:07.186Z,20.13
2018-12-29T16:23:36.189Z,21.90
2018-12-29T16:26:12.498Z,20.73
2018-12-29T16:28:35.825Z,24.07
2018-12-29T16:31:04.847Z,23.50
2018-12-29T16:33:34.262Z,24.60
2018-12-29T16:36:03.674Z,23.73
2018-12-29T16:38:32.718Z,17.73
2018-12-29T16:41:02.968Z,17.90
2018-12-29T16:43:32.444Z,20.67
2018-12-29T16:46:01.203Z,19.93
2018-12-29T16:48:30.694Z,16.40
2018-12-29T16:50:59.857Z,21.23
2018-12-29T16:53:29.377Z,18.57
2018-12-29T16:55:58.681Z,21.10
2018-12-29T16:58:27.318Z,17.67
2018-12-29T17:00:56.375Z,17.30
2018-12-29T17:03:25.187Z,20.13
2018-12-29T17:05:54.589Z,19.00
2018-12-29T17:08:23.234Z,19.17
2018-12-29T17:10:52.660Z,21.17
2018-12-29T17:13:21.298Z,20.73
2018-12-29T17:15:50.329Z,19.53
2018-12-29T17:18:18.977Z,20.57
2018-12-29T17:20:47.897Z,20.13
2018-12-29T17:23:17.017Z,23.80
2018-12-29T17:25:45.685Z,21.53
2018-12-29T17:28:14.692Z,19.40
2018-12-29T17:30:43.906Z,23.20
2018-12-29T17:33:12.944Z,25.47
2018-12-29T17:35:41.970Z,19.60
2018-12-29T17:38:11.281Z,22.83
2018-12-29T17:40:40.048Z,23.70
2018-12-29T17:43:09.250Z,20.73
2018-12-29T17:45:38.122Z,18.20
2018-12-29T17:48:06.755Z,22.93
2018-12-29T17:50:36.155Z,22.40
2018-12-29T17:53:04.798Z,19.80
2018-12-29T17:55:33.818Z,19.10
2018-12-29T17:58:02.727Z,20.67
2018-12-29T18:00:32.170Z,20.53
2018-12-29T18:03:00.934Z,23.37
2018-12-29T18:05:29.758Z,22.77
2018-12-29T18:07:58.772Z,23.93
2018-12-29T18:10:28.141Z,23.73
2018-12-29T18:12:57.064Z,23.00
2018-12-29T18:15:26.054Z,21.70
2018-12-29T18:17:54.707Z,22.57
2018-12-29T18:20:23.622Z,23.20
2018-12-29T18:22:52.383Z,23.57
2018-12-29T18:25:21.392Z,20.20
2018-12-29T18:27:50.452Z,20.60
2018-12-29T18:30:19.302Z,24.33
2018-12-29T18:32:48.667Z,19.73
2018-12-29T18:35:17.340Z,23.10
2018-12-29T18:37:46.527Z,21.40
2018-12-29T18:40:15.565Z,21.67
2018-12-29T18:42:44.874Z,25.40
2018-12-29T18:45:13.655Z,21.80
2018-12-29T18:47:42.484Z,21.13
2018-12-29T18:50:11.332Z,20.47
2018-12-29T18:52:40.324Z,20.60
2018-12-29T18:55:09.372Z,25.47
2018-12-29T18:57:38.188Z,19.97
2018-12-29T19:00:07.110Z,21.27
2018-12-29T19:02:36.243Z,23.80
2018-12-29T19:05:04.957Z,22.20
2018-12-29T19:07:34.106Z,24.53
2018-12-29T19:10:03.439Z,23.23
2018-12-29T19:12:32.568Z,22.80
2018-12-29T19:15:01.783Z,17.85
2018-12-29T19:17:31.349Z,23.40
2018-12-29T19:20:00.829Z,23.57
2018-12-29T19:22:29.503Z,24.63
2018-12-29T19:24:58.322Z,23.43
2018-12-29T19:27:27.715Z,25.82
2018-12-29T19:29:56.751Z,25.50
2018-12-29T19:32:25.778Z,24.70
2018-12-29T19:34:54.836Z,23.77
2018-12-29T19:37:24.030Z,29.47
2018-12-29T19:39:53.072Z,24.53
2018-12-29T19:42:21.764Z,28.20
2018-12-29T19:44:50.932Z,23.93
2018-12-29T19:47:19.746Z,24.43
2018-12-29T19:49:53.610Z,26.00
2018-12-29T19:52:18.636Z,21.53
2018-12-29T19:54:47.653Z,26.33
2018-12-29T19:57:17.083Z,22.50
2018-12-29T19:59:46.316Z,26.27
2018-12-29T20:02:15.334Z,26.80
2018-12-29T20:04:44.393Z,26.43
2018-12-29T20:07:13.401Z,23.17
2018-12-29T20:09:42.435Z,22.62
2018-12-29T20:12:11.444Z,23.57
2018-12-29T20:14:40.703Z,22.40
2018-12-29T20:17:09.553Z,29.90
2018-12-29T20:19:38.415Z,23.00
2018-12-29T20:22:07.761Z,23.70
2018-12-29T20:24:36.980Z,20.82
2018-12-29T20:27:06.006Z,26.65
2018-12-29T20:29:34.875Z,25.47
2018-12-29T20:32:04.259Z,23.57
2018-12-29T20:34:33.519Z,23.00
2018-12-29T20:37:02.327Z,24.07
2018-12-29T20:39:31.357Z,24.13
2018-12-29T20:42:00.015Z,28.07
2018-12-29T20:44:28.734Z,23.70
2018-12-29T20:46:57.691Z,23.37
2018-12-29T20:49:26.515Z,23.57
2018-12-29T20:51:55.210Z,25.60
2018-12-29T20:54:23.992Z,21.45
2018-12-29T20:56:52.803Z,24.32
2018-12-29T20:59:21.446Z,23.62
2018-12-29T21:01:50.266Z,22.95
2018-12-29T21:04:19.199Z,27.05
2018-12-29T21:06:48.512Z,22.37
2018-12-29T21:09:17.184Z,23.98
2018-12-29T21:11:46.376Z,20.40
2018-12-29T21:14:16.195Z,23.25
2018-12-29T21:16:45.037Z,23.57
2018-12-29T21:19:13.699Z,27.82
2018-12-29T21:21:42.528Z,25.70
2018-12-29T21:24:12.441Z,22.95
2018-12-29T21:26:42.135Z,24.98
2018-12-29T21:29:10.803Z,24.07
2018-12-29T21:31:39.991Z,25.77
2018-12-29T21:34:09.216Z,28.45
2018-12-29T21:36:37.895Z,21.52
2018-12-29T21:39:07.473Z,23.27
2018-12-29T21:41:36.321Z,23.30
2018-12-29T21:44:05.534Z,21.33
2018-12-29T21:46:34.383Z,20.23
2018-12-29T21:49:03.403Z,20.80
2018-12-29T21:51:32.436Z,19.00
2018-12-29T21:54:02.443Z,20.60
2018-12-29T21:56:31.479Z,20.23
2018-12-29T21:59:00.155Z,21.97
2018-12-29T22:01:29.339Z,23.47
2018-12-29T22:03:58.561Z,24.20
2018-12-29T22:06:27.790Z,25.17
2018-12-29T22:08:56.463Z,22.63
2018-12-29T22:11:25.461Z,24.30
2018-12-29T22:13:54.490Z,26.87
2018-12-29T22:16:23.905Z,22.70
2018-12-29T22:18:52.945Z,21.07
2018-12-29T22:21:22.270Z,27.67
2018-12-29T22:23:51.032Z,22.97
2018-12-29T22:26:19.867Z,29.50
2018-12-29T22:28:48.921Z,24.63
2018-12-29T22:31:17.711Z,23.60
2018-12-29T22:33:46.759Z,19.33
2018-12-29T22:36:15.956Z,21.63
2018-12-29T22:38:44.988Z,24.77
2018-12-29T22:41:14.203Z,23.03
2018-12-29T22:43:43.427Z,21.93
2018-12-29T22:46:12.479Z,19.57
2018-12-29T22:48:41.499Z,22.87
2018-12-29T22:51:10.168Z,24.50
2018-12-29T22:53:38.996Z,24.57
2018-12-29T22:56:07.834Z,22.67
2018-12-29T22:58:37.217Z,22.00
2018-12-29T23:01:06.251Z,19.73
2018-12-29T23:03:35.516Z,24.10
2018-12-29T23:06:05.279Z,22.93
2018-12-29T23:08:34.522Z,23.30
2018-12-29T23:11:03.936Z,22.93
2018-12-29T23:13:32.984Z,22.53
2018-12-29T23:16:02.012Z,20.83
2018-12-29T23:18:31.035Z,21.63
2018-12-29T23:20:59.867Z,21.10
2018-12-29T23:23:29.090Z,18.83
2018-12-29T23:25:58.348Z,23.43
2018-12-29T23:28:27.541Z,20.03
2018-12-29T23:30:56.791Z,21.40
2018-12-29T23:33:25.494Z,22.03
2018-12-29T23:35:54.280Z,19.73
2018-12-29T23:38:23.462Z,21.83
2018-12-29T23:40:52.302Z,23.50
2018-12-29T23:43:21.331Z,21.23
2018-12-29T23:45:49.991Z,19.98
2018-12-29T23:48:18.827Z,22.27
2018-12-29T23:50:47.659Z,18.00
2018-12-29T23:53:16.283Z,21.27
2018-12-29T23:55:45.511Z,19.40
2018-12-29T23:58:14.720Z,20.63
